createdAt,value
2022-12-22T03:39:55.132Z,6.35
2022-12-22T03:42:40.819Z,6.23
2022-12-22T03:45:28.343Z,6.46
2022-12-22T03:47:56.296Z,6.48
2022-12-22T03:50:24.201Z,6.46
2022-12-22T03:52:52.223Z,6.48
2022-12-22T03:55:21.476Z,6.53
2022-12-22T03:57:49.324Z,6.54
2022-12-22T04:00:18.332Z,6.60
2022-12-22T04:02:46.215Z,6.66
2022-12-22T04:05:14.532Z,6.69
2022-12-22T04:07:42.379Z,6.76
2022-12-22T04:10:28.848Z,6.78
2022-12-22T04:12:57.939Z,6.85
2022-12-22T04:15:27.972Z,6.80
2022-12-22T04:17:55.945Z,6.74
2022-12-22T04:20:27.370Z,6.76
2022-12-22T04:22:55.176Z,6.88
2022-12-22T04:25:24.124Z,6.90
2022-12-22T04:27:52.243Z,7.05
2022-12-22T04:30:21.970Z,6.96
2022-12-22T04:32:50.055Z,7.03
2022-12-22T04:35:18.608Z,6.94
2022-12-22T04:37:47.002Z,7.05
2022-12-22T04:40:15.203Z,7.06
2022-12-22T04:42:43.234Z,7.03
2022-12-22T04:45:12.546Z,7.07
2022-12-22T04:47:42.368Z,7.12
2022-12-22T04:50:10.995Z,7.05
2022-12-22T04:52:40.180Z,7.20
2022-12-22T04:55:09.401Z,7.16
2022-12-22T04:57:40.772Z,7.17
2022-12-22T05:00:10.576Z,7.14
2022-12-22T05:02:39.694Z,7.26
2022-12-22T05:05:10.395Z,7.32
2022-12-22T05:07:38.602Z,7.44
2022-12-22T05:10:07.435Z,7.21
2022-12-22T05:12:53.319Z,7.51
2022-12-22T05:15:21.705Z,7.42
2022-12-22T05:17:50.351Z,7.58
2022-12-22T05:20:20.251Z,7.44
2022-12-22T05:22:49.355Z,7.70
2022-12-22T05:25:18.204Z,7.72
2022-12-22T05:27:46.200Z,7.99
2022-12-22T05:30:15.418Z,7.91
2022-12-22T05:32:43.654Z,8.09
2022-12-22T05:35:12.012Z,8.10
2022-12-22T05:37:42.248Z,7.76
2022-12-22T05:40:12.190Z,8.11
2022-12-22T05:42:40.834Z,8.01
2022-12-22T05:45:13.434Z,8.21
2022-12-22T05:47:42.418Z,8.17
2022-12-22T05:50:12.098Z,8.28
2022-12-22T05:52:42.504Z,8.54
2022-12-22T05:55:11.178Z,8.28
2022-12-22T05:57:39.950Z,8.55
2022-12-22T06:00:10.780Z,8.76
2022-12-22T06:02:39.280Z,8.27
2022-12-22T06:05:08.441Z,8.62
2022-12-22T06:07:36.960Z,8.34
2022-12-22T06:10:12.327Z,8.38
2022-12-22T06:12:41.478Z,8.35
2022-12-22T06:15:10.909Z,8.49
2022-12-22T06:17:44.690Z,8.58
2022-12-22T06:20:14.637Z,8.53
2022-12-22T06:22:43.120Z,8.44
2022-12-22T06:25:18.151Z,8.62
2022-12-22T06:27:47.737Z,8.62
2022-12-22T06:30:16.786Z,8.98
2022-12-22T06:32:45.464Z,9.11
2022-12-22T06:35:13.795Z,9.03
2022-12-22T06:37:42.466Z,8.98
2022-12-22T06:40:13.040Z,9.06
2022-12-22T06:43:04.116Z,8.91
2022-12-22T06:45:34.220Z,8.99
2022-12-22T06:48:02.640Z,9.17
2022-12-22T06:50:30.686Z,9.07
2022-12-22T06:52:58.845Z,9.10
2022-12-22T06:55:28.364Z,9.36
2022-12-22T06:57:56.982Z,9.36
2022-12-22T07:00:25.349Z,9.47
2022-12-22T07:02:54.033Z,9.45
2022-12-22T07:05:23.862Z,9.52
2022-12-22T07:07:52.516Z,9.50
2022-12-22T07:10:40.777Z,9.56
2022-12-22T07:13:20.682Z,9.61
2022-12-22T07:15:57.553Z,9.53
2022-12-22T07:18:28.642Z,9.52
2022-12-22T07:20:56.897Z,9.49
2022-12-22T07:23:25.295Z,9.71
2022-12-22T07:25:54.003Z,9.79
2022-12-22T07:28:23.760Z,9.83
2022-12-22T07:30:53.012Z,9.95
2022-12-22T07:33:21.726Z,10.00
2022-12-22T07:35:50.248Z,10.15
2022-12-22T07:38:18.716Z,10.06
2022-12-22T07:40:51.899Z,10.15
2022-12-22T07:43:19.786Z,10.13
2022-12-22T07:45:49.994Z,10.14
2022-12-22T07:48:35.848Z,10.08
2022-12-22T07:51:06.818Z,10.11
2022-12-22T07:53:35.817Z,10.22
2022-12-22T07:56:05.869Z,10.19
2022-12-22T07:58:34.113Z,10.36
2022-12-22T08:01:03.568Z,10.37
2022-12-22T08:03:31.774Z,10.34
2022-12-22T08:06:00.336Z,10.37
2022-12-22T08:08:28.646Z,10.36
2022-12-22T08:10:56.930Z,10.41
2022-12-22T08:13:25.469Z,10.42
2022-12-22T08:15:54.153Z,10.33
2022-12-22T08:18:23.999Z,10.26
2022-12-22T08:20:53.338Z,10.25
2022-12-22T08:23:21.650Z,10.54
2022-12-22T08:25:55.365Z,10.54
2022-12-22T08:28:24.191Z,10.63
2022-12-22T08:30:53.226Z,10.49
2022-12-22T08:33:21.631Z,10.45
2022-12-22T08:35:51.652Z,10.46
2022-12-22T08:38:19.920Z,10.52
2022-12-22T08:40:50.247Z,10.29
2022-12-22T08:43:20.191Z,10.52
2022-12-22T08:45:48.966Z,10.68
2022-12-22T08:48:17.223Z,10.48
2022-12-22T08:50:45.685Z,10.59
2022-12-22T08:53:45.233Z,10.58
2022-12-22T08:56:03.994Z,10.67
2022-12-22T08:58:32.247Z,10.61
2022-12-22T09:01:00.943Z,10.79
2022-12-22T09:03:29.420Z,10.66
2022-12-22T09:06:02.574Z,10.67
2022-12-22T09:08:32.235Z,10.75
2022-12-22T09:11:04.793Z,10.76
2022-12-22T09:13:33.118Z,10.82
2022-12-22T09:16:01.844Z,10.77
2022-12-22T09:18:30.084Z,10.85
2022-12-22T09:20:59.003Z,11.09
2022-12-22T09:23:27.313Z,10.98
2022-12-22T09:25:57.420Z,11.17
2022-12-22T09:28:25.607Z,11.15
2022-12-22T09:30:56.278Z,11.12
2022-12-22T09:33:26.380Z,11.21
2022-12-22T09:35:54.966Z,11.29
2022-12-22T09:38:23.234Z,11.13
2022-12-22T09:40:51.888Z,11.23
2022-12-22T09:43:29.841Z,11.37
2022-12-22T09:45:59.615Z,11.50
2022-12-22T09:48:35.392Z,11.41
2022-12-22T09:51:05.144Z,11.65
2022-12-22T09:53:34.239Z,11.88
2022-12-22T09:56:03.453Z,11.64
2022-12-22T09:58:35.958Z,11.76
2022-12-22T10:01:28.920Z,11.51
2022-12-22T10:04:06.024Z,11.25
2022-12-22T10:06:39.653Z,11.39
2022-12-22T10:09:46.337Z,11.31
2022-12-22T10:12:08.334Z,11.22
2022-12-22T10:14:40.616Z,11.33
2022-12-22T10:17:24.681Z,11.55
2022-12-22T10:19:55.594Z,11.79
2022-12-22T10:22:32.448Z,11.67
2022-12-22T10:25:03.633Z,12.02
2022-12-22T10:27:37.225Z,11.97
2022-12-22T10:30:22.050Z,12.00
2022-12-22T10:33:04.115Z,11.96
2022-12-22T10:35:46.453Z,12.08
2022-12-22T10:38:21.800Z,11.73
2022-12-22T10:40:58.354Z,11.88
2022-12-22T10:43:32.185Z,11.81
2022-12-22T10:46:04.066Z,11.82
2022-12-22T10:48:35.198Z,11.80
2022-12-22T10:51:05.820Z,11.93
2022-12-22T10:53:51.048Z,12.01
2022-12-22T10:56:25.753Z,12.42
2022-12-22T10:58:56.687Z,12.19
2022-12-22T11:01:30.762Z,12.32
2022-12-22T11:04:10.144Z,12.42
2022-12-22T11:06:38.966Z,12.17
2022-12-22T11:09:31.843Z,12.46
2022-12-22T11:12:04.201Z,12.77
2022-12-22T11:14:42.352Z,12.35
2022-12-22T11:17:19.554Z,12.39
2022-12-22T11:20:04.924Z,12.69
2022-12-22T11:22:40.510Z,12.68
2022-12-22T11:25:23.762Z,12.65
2022-12-22T11:28:03.877Z,12.67
2022-12-22T11:30:41.392Z,12.50
2022-12-22T11:33:27.415Z,12.58
2022-12-22T11:36:00.350Z,12.52
2022-12-22T11:38:45.840Z,12.28
2022-12-22T11:41:24.159Z,12.24
2022-12-22T11:44:07.181Z,11.94
2022-12-22T11:46:42.210Z,11.96
2022-12-22T11:49:33.644Z,11.95
2022-12-22T11:52:14.865Z,11.97
2022-12-22T11:55:01.507Z,11.74
2022-12-22T11:57:39.295Z,11.95
2022-12-22T12:00:12.010Z,12.04
2022-12-22T12:03:12.767Z,11.77
2022-12-22T12:06:35.124Z,11.75
2022-12-22T12:09:29.078Z,11.57
2022-12-22T12:12:04.079Z,11.43
2022-12-22T12:14:40.590Z,11.69
2022-12-22T12:17:20.154Z,11.65
2022-12-22T12:20:22.707Z,11.53
2022-12-22T12:23:07.832Z,11.33
2022-12-22T12:25:49.545Z,11.34
2022-12-22T12:28:25.286Z,11.27
2022-12-22T12:30:57.756Z,11.24
2022-12-22T12:33:43.747Z,11.35
2022-12-22T12:36:19.718Z,11.30
2022-12-22T12:39:08.526Z,11.23
2022-12-22T12:41:48.531Z,11.36
2022-12-22T12:44:20.883Z,11.49
2022-12-22T12:47:04.911Z,11.30
2022-12-22T12:49:59.268Z,11.37
2022-12-22T12:53:16.897Z,11.44
2022-12-22T12:56:12.564Z,11.38
2022-12-22T12:58:54.096Z,11.48
2022-12-22T13:02:00.308Z,11.41
2022-12-22T13:05:14.117Z,11.42
2022-12-22T13:08:09.268Z,11.54
2022-12-22T13:10:40.642Z,11.49
2022-12-22T13:13:48.158Z,11.44
2022-12-22T13:16:35.936Z,11.38
2022-12-22T13:19:22.485Z,11.50
2022-12-22T13:21:53.943Z,11.33
2022-12-22T13:27:14.986Z,11.50
2022-12-22T13:29:45.726Z,11.31
2022-12-22T13:30:51.054Z,11.34
2022-12-22T13:32:24.128Z,11.12
2022-12-22T13:37:49.938Z,11.56
2022-12-22T13:40:21.176Z,11.49
2022-12-22T13:42:52.341Z,11.35
2022-12-22T13:45:37.359Z,11.47
2022-12-22T13:48:14.039Z,11.37
2022-12-22T13:50:46.807Z,11.36
2022-12-22T13:56:24.064Z,11.48
2022-12-22T13:58:57.354Z,11.33
2022-12-22T14:01:26.892Z,11.22
2022-12-22T14:04:08.437Z,11.31
2022-12-22T14:06:39.172Z,11.51
2022-12-22T14:09:18.576Z,11.40
2022-12-22T14:11:52.973Z,11.33
2022-12-22T14:14:26.009Z,11.19
2022-12-22T14:16:57.155Z,11.20
2022-12-22T14:19:29.472Z,11.32
2022-12-22T14:22:10.773Z,11.39
2022-12-22T14:24:46.277Z,11.25
2022-12-22T14:27:20.949Z,11.53
2022-12-22T14:29:49.596Z,11.45
2022-12-22T14:32:37.231Z,11.43
2022-12-22T14:35:25.767Z,11.44
2022-12-22T14:37:57.265Z,11.42
2022-12-22T14:40:34.226Z,11.50
2022-12-22T14:43:06.014Z,11.44
2022-12-22T14:45:34.777Z,11.49
2022-12-22T14:48:03.662Z,11.35
2022-12-22T14:50:33.495Z,11.36
2022-12-22T14:53:03.912Z,11.32
2022-12-22T14:55:34.850Z,11.52
2022-12-22T14:58:07.097Z,11.35
2022-12-22T15:00:38.100Z,11.26
2022-12-22T15:03:31.292Z,11.32
2022-12-22T15:06:24.679Z,11.37
2022-12-22T15:08:54.217Z,11.53
2022-12-22T15:11:25.715Z,11.53
2022-12-22T15:13:54.771Z,11.42
2022-12-22T15:16:25.115Z,11.21
2022-12-22T15:18:54.616Z,11.27
2022-12-22T15:21:24.348Z,11.38
2022-12-22T15:23:52.652Z,11.44
2022-12-22T15:26:21.213Z,11.28
2022-12-22T15:28:50.555Z,11.45
2022-12-22T15:31:19.595Z,11.27
2022-12-22T15:33:48.300Z,11.29
2022-12-22T15:36:16.662Z,11.40
2022-12-22T15:38:48.143Z,11.51
2022-12-22T15:41:16.344Z,11.22
2022-12-22T15:44:00.005Z,11.25
2022-12-22T15:46:31.397Z,11.33
2022-12-22T15:49:00.143Z,11.29
2022-12-22T15:51:30.777Z,11.42
2022-12-22T15:54:01.528Z,11.39
2022-12-22T15:56:33.629Z,11.27
2022-12-22T15:59:03.499Z,11.26
2022-12-22T16:01:31.922Z,11.36
2022-12-22T16:04:00.752Z,11.47
2022-12-22T16:06:29.060Z,11.38
2022-12-22T16:08:57.565Z,11.20
2022-12-22T16:11:27.304Z,11.11
2022-12-22T16:13:55.528Z,11.39
2022-12-22T16:16:24.095Z,11.30
2022-12-22T16:18:52.639Z,11.26
2022-12-22T16:21:28.421Z,11.22
2022-12-22T16:23:57.114Z,11.34
2022-12-22T16:26:26.915Z,11.27
2022-12-22T16:28:58.334Z,11.30
2022-12-22T16:31:27.500Z,11.24
2022-12-22T16:33:56.269Z,11.11
2022-12-22T16:36:24.451Z,11.37
2022-12-22T16:38:53.203Z,11.06
2022-12-22T16:41:25.307Z,11.17
2022-12-22T16:44:03.813Z,11.10
2022-12-22T16:46:38.320Z,10.98
2022-12-22T16:49:09.891Z,11.08
2022-12-22T16:51:46.236Z,10.93
2022-12-22T16:54:15.611Z,11.01
2022-12-22T16:56:47.397Z,11.08
2022-12-22T16:59:17.632Z,11.07
2022-12-22T17:01:50.918Z,10.92
2022-12-22T17:04:22.816Z,10.75
2022-12-22T17:06:52.513Z,10.77
2022-12-22T17:09:24.370Z,10.72
2022-12-22T17:11:54.706Z,10.91
2022-12-22T17:14:30.486Z,10.97
2022-12-22T17:16:59.636Z,10.79
2022-12-22T17:19:27.986Z,10.99
2022-12-22T17:21:57.626Z,11.21
2022-12-22T17:24:28.743Z,11.17
2022-12-22T17:26:59.779Z,11.08
2022-12-22T17:29:30.087Z,11.15
2022-12-22T17:31:58.625Z,11.15
2022-12-22T17:34:28.019Z,11.00
2022-12-22T17:36:59.146Z,10.96
2022-12-22T17:39:27.455Z,11.02
2022-12-22T17:41:57.369Z,10.93
2022-12-22T17:44:27.957Z,11.01
2022-12-22T17:46:57.783Z,10.92
2022-12-22T17:49:25.968Z,11.10
2022-12-22T17:51:54.432Z,10.96
2022-12-22T17:54:25.345Z,10.91
2022-12-22T17:56:55.829Z,10.97
2022-12-22T17:59:24.400Z,11.04
2022-12-22T18:01:53.251Z,11.18
2022-12-22T18:04:22.874Z,11.11
2022-12-22T18:06:51.369Z,11.09
2022-12-22T18:09:22.621Z,11.14
2022-12-22T18:11:51.172Z,11.04
2022-12-22T18:14:20.695Z,11.10
2022-12-22T18:16:49.178Z,11.00
2022-12-22T18:19:17.477Z,11.03
2022-12-22T18:21:47.319Z,11.03
2022-12-22T18:24:17.663Z,10.90
2022-12-22T18:26:47.448Z,10.92
2022-12-22T18:29:16.064Z,10.79
2022-12-22T18:31:45.515Z,10.81
2022-12-22T18:34:13.861Z,10.87
2022-12-22T18:36:45.844Z,10.90
2022-12-22T18:39:19.088Z,10.88
2022-12-22T18:41:48.203Z,10.78
2022-12-22T18:44:18.065Z,10.81
2022-12-22T18:46:46.820Z,11.02
2022-12-22T18:49:15.097Z,11.08
2022-12-22T18:51:44.836Z,11.09
2022-12-22T18:54:23.936Z,10.81
2022-12-22T18:56:52.625Z,10.59
2022-12-22T18:59:29.109Z,10.76
2022-12-22T19:02:03.662Z,10.67
2022-12-22T19:04:31.963Z,10.40
2022-12-22T19:07:00.235Z,10.36
2022-12-22T19:09:29.755Z,10.30
2022-12-22T19:11:58.197Z,10.27
2022-12-22T19:14:26.290Z,10.18
2022-12-22T19:16:56.203Z,10.16
2022-12-22T19:19:24.425Z,10.27
2022-12-22T19:21:54.143Z,10.19
2022-12-22T19:24:22.231Z,10.17
2022-12-22T19:26:52.119Z,10.13
2022-12-22T19:29:20.718Z,10.24
2022-12-22T19:31:49.412Z,10.24
2022-12-22T19:34:21.383Z,10.13
2022-12-22T19:36:50.206Z,10.15
2022-12-22T19:39:18.212Z,10.08
2022-12-22T19:41:49.022Z,10.16
2022-12-22T19:44:22.252Z,10.42
2022-12-22T19:46:51.869Z,10.17
2022-12-22T19:49:21.996Z,10.53
2022-12-22T19:51:50.535Z,10.33
2022-12-22T19:54:19.715Z,10.47
2022-12-22T19:56:51.419Z,10.58
2022-12-22T19:59:29.788Z,10.73
2022-12-22T20:02:02.907Z,10.96
2022-12-22T20:04:33.977Z,10.78
2022-12-22T20:07:02.759Z,10.77
2022-12-22T20:09:31.055Z,10.57
2022-12-22T20:11:59.724Z,10.56
2022-12-22T20:14:29.226Z,10.61
2022-12-22T20:16:57.685Z,10.86
2022-12-22T20:19:26.018Z,10.73
2022-12-22T20:21:54.485Z,10.67
2022-12-22T20:24:23.865Z,10.86
2022-12-22T20:26:54.813Z,10.85
2022-12-22T20:29:25.222Z,11.04
2022-12-22T20:31:55.738Z,10.74
2022-12-22T20:34:24.079Z,10.66
2022-12-22T20:36:52.563Z,10.71
2022-12-22T20:39:21.938Z,10.87
2022-12-22T20:41:53.678Z,10.87
2022-12-22T20:44:24.015Z,10.92
2022-12-22T20:46:55.687Z,11.09
2022-12-22T20:49:24.689Z,11.05
2022-12-22T20:51:53.248Z,10.88
2022-12-22T20:54:21.839Z,10.90
2022-12-22T20:56:51.339Z,10.68
2022-12-22T20:59:22.436Z,10.71
2022-12-22T21:01:53.097Z,10.87
2022-12-22T21:04:22.924Z,10.92
2022-12-22T21:06:54.367Z,10.83
2022-12-22T21:09:23.108Z,10.79
2022-12-22T21:11:51.583Z,10.97
2022-12-22T21:14:20.265Z,10.89
2022-12-22T21:16:49.828Z,11.01
2022-12-22T21:19:21.660Z,11.12
2022-12-22T21:21:51.278Z,10.99
2022-12-22T21:24:20.244Z,11.07
2022-12-22T21:26:51.772Z,11.14
2022-12-22T21:29:23.397Z,11.10
2022-12-22T21:31:52.032Z,10.96
2022-12-22T21:34:20.616Z,10.92
2022-12-22T21:36:56.978Z,10.97
2022-12-22T21:39:32.708Z,10.74
2022-12-22T21:42:05.432Z,10.89
2022-12-22T21:44:35.582Z,10.67
2022-12-22T21:47:04.018Z,10.54
2022-12-22T21:49:34.547Z,10.44
2022-12-22T21:52:04.296Z,10.68
2022-12-22T21:54:34.167Z,10.73
2022-12-22T21:57:03.037Z,10.79
2022-12-22T21:59:31.244Z,10.82
2022-12-22T22:02:00.098Z,10.64
2022-12-22T22:04:28.473Z,10.57
2022-12-22T22:06:57.968Z,10.70
2022-12-22T22:09:28.034Z,10.57
2022-12-22T22:12:13.977Z,10.64
2022-12-22T22:14:42.665Z,10.78
2022-12-22T22:17:12.155Z,10.78
2022-12-22T22:19:40.338Z,10.84
2022-12-22T22:22:09.239Z,10.78
2022-12-22T22:24:38.940Z,10.65
2022-12-22T22:27:07.411Z,10.72
2022-12-22T22:29:36.651Z,10.64
2022-12-22T22:32:05.197Z,10.58
2022-12-22T22:34:33.482Z,10.55
2022-12-22T22:37:02.064Z,10.51
2022-12-22T22:39:30.904Z,10.69
2022-12-22T22:42:01.300Z,10.61
2022-12-22T22:44:30.482Z,10.76
2022-12-22T22:46:58.728Z,10.73
2022-12-22T22:49:36.576Z,10.81
2022-12-22T22:52:05.173Z,10.67
2022-12-22T22:54:34.240Z,10.54
2022-12-22T22:57:04.416Z,10.58
2022-12-22T22:59:33.213Z,10.46
2022-12-22T23:02:01.411Z,10.52
2022-12-22T23:04:31.234Z,10.54
2022-12-22T23:07:00.036Z,10.54
2022-12-22T23:09:28.221Z,10.66
2022-12-22T23:11:58.130Z,10.57
2022-12-22T23:14:27.846Z,10.55
2022-12-22T23:16:56.063Z,10.72
2022-12-22T23:19:25.855Z,10.61
2022-12-22T23:21:54.233Z,10.74
2022-12-22T23:24:22.711Z,10.55
2022-12-22T23:26:51.776Z,10.65
2022-12-22T23:29:20.086Z,10.52
2022-12-22T23:31:50.340Z,10.35
2022-12-22T23:34:18.746Z,10.62
2022-12-22T23:36:47.393Z,10.47
2022-12-22T23:39:15.575Z,10.50
2022-12-22T23:41:43.882Z,10.57
2022-12-22T23:44:12.211Z,10.59
2022-12-22T23:46:41.981Z,10.51
2022-12-22T23:49:14.261Z,10.50
2022-12-22T23:51:43.889Z,10.58
2022-12-22T23:54:11.963Z,10.70
2022-12-22T23:56:40.105Z,10.57
2022-12-22T23:59:08.784Z,10.62
